createdAt,value
2023-04-23T00:00:39.841Z,7.70
2023-04-23T00:01:39.846Z,6.90
2023-04-23T00:02:39.926Z,7.80
2023-04-23T00:03:39.958Z,6.70
2023-04-23T00:04:40.112Z,6.90
2023-04-23T00:05:39.778Z,9.00
2023-04-23T00:06:39.861Z,8.30
2023-04-23T00:07:39.751Z,6.50
2023-04-23T00:08:39.760Z,6.60
2023-04-23T00:09:39.746Z,7.00
2023-04-23T00:10:39.728Z,7.50
2023-04-23T00:11:39.703Z,7.00
2023-04-23T00:12:39.706Z,6.60
2023-04-23T00:13:39.722Z,7.30
2023-04-23T00:14:39.942Z,7.50
2023-04-23T00:15:39.665Z,6.70
2023-04-23T00:16:39.695Z,7.30
2023-04-23T00:17:39.659Z,7.90
2023-04-23T00:18:39.652Z,9.40
2023-04-23T00:19:39.633Z,8.20
2023-04-23T00:20:39.615Z,8.50
2023-04-23T00:21:39.606Z,8.90
2023-04-23T00:22:39.585Z,10.80
2023-04-23T00:23:39.589Z,8.90
2023-04-23T00:24:39.860Z,8.20
2023-04-23T00:25:39.573Z,7.80
2023-04-23T00:26:39.537Z,8.40
2023-04-23T00:27:39.544Z,9.90
2023-04-23T00:28:39.543Z,8.10
2023-04-23T00:29:39.522Z,8.40
2023-04-23T00:30:39.494Z,9.60
2023-04-23T00:31:39.528Z,8.80
2023-04-23T00:32:39.490Z,10.50
2023-04-23T00:33:39.455Z,9.10
2023-04-23T00:34:39.784Z,10.60
2023-04-23T00:35:39.438Z,10.30
2023-04-23T00:36:39.422Z,8.30
2023-04-23T00:37:39.449Z,9.30
2023-04-23T00:38:39.404Z,10.00
2023-04-23T00:39:39.406Z,10.60
2023-04-23T00:40:39.386Z,9.60
2023-04-23T00:41:39.375Z,11.10
2023-04-23T00:42:39.398Z,9.50
2023-04-23T00:43:39.362Z,10.10
2023-04-23T00:44:39.462Z,10.70
2023-04-23T00:45:39.342Z,10.10
2023-04-23T00:46:39.311Z,9.50
2023-04-23T00:47:39.334Z,11.10
2023-04-23T00:48:39.286Z,10.00
2023-04-23T00:49:39.332Z,10.70
2023-04-23T00:50:39.293Z,10.00
2023-04-23T00:51:39.270Z,14.40
2023-04-23T00:52:39.246Z,9.50
2023-04-23T00:53:39.234Z,10.90
2023-04-23T00:54:39.415Z,12.10
2023-04-23T00:55:39.224Z,12.00
2023-04-23T00:56:39.219Z,11.20
2023-04-23T00:57:39.194Z,9.20
2023-04-23T00:58:39.190Z,10.40
2023-04-23T00:59:39.203Z,11.00
2023-04-23T01:00:39.169Z,11.20
2023-04-23T01:01:39.224Z,10.30
2023-04-23T01:02:39.268Z,11.70
2023-04-23T01:03:39.273Z,11.60
2023-04-23T01:04:39.339Z,10.60
2023-04-23T01:05:39.125Z,11.30
2023-04-23T01:06:39.114Z,13.00
2023-04-23T01:07:39.092Z,14.50
2023-04-23T01:08:39.070Z,12.20
2023-04-23T01:09:39.080Z,12.10
2023-04-23T01:10:39.052Z,11.50
2023-04-23T01:11:39.068Z,11.00
2023-04-23T01:12:39.088Z,10.30
2023-04-23T01:13:39.029Z,10.80
2023-04-23T01:14:39.223Z,10.50
2023-04-23T01:15:38.999Z,9.90
2023-04-23T01:16:39.046Z,12.70
2023-04-23T01:17:39.024Z,10.70
2023-04-23T01:18:38.958Z,10.40
2023-04-23T01:19:39.001Z,11.10
2023-04-23T01:20:38.950Z,10.70
2023-04-23T01:21:38.940Z,11.90
2023-04-23T01:22:38.918Z,10.40
2023-04-23T01:23:38.910Z,10.50
2023-04-23T01:24:39.324Z,10.90
2023-04-23T01:25:38.899Z,11.60
2023-04-23T01:26:38.873Z,12.00
2023-04-23T01:27:38.878Z,12.90
2023-04-23T01:28:38.870Z,11.30
2023-04-23T01:29:38.887Z,9.90
2023-04-23T01:30:38.880Z,10.10
2023-04-23T01:31:38.834Z,9.40
2023-04-23T01:32:38.821Z,9.90
2023-04-23T01:33:38.805Z,9.40
2023-04-23T01:34:39.018Z,9.70
2023-04-23T01:35:38.810Z,10.90
2023-04-23T01:36:38.787Z,11.50
2023-04-23T01:37:38.770Z,10.10
2023-04-23T01:38:38.749Z,10.10
2023-04-23T01:39:38.767Z,9.60
2023-04-23T01:40:38.720Z,9.60
2023-04-23T01:41:38.758Z,12.00
2023-04-23T01:42:38.695Z,9.10
2023-04-23T01:43:38.693Z,13.30
2023-04-23T01:44:38.789Z,10.40
2023-04-23T01:45:38.698Z,11.40
2023-04-23T01:46:38.768Z,11.70
2023-04-23T01:47:38.697Z,10.20
2023-04-23T01:48:38.664Z,10.60
2023-04-23T01:49:38.656Z,9.70
2023-04-23T01:50:38.612Z,10.80
2023-04-23T01:51:38.617Z,12.40
2023-04-23T01:52:38.598Z,14.90
2023-04-23T01:53:38.611Z,14.50
2023-04-23T01:54:38.989Z,14.90
2023-04-23T01:55:38.596Z,15.10
2023-04-23T01:56:38.591Z,13.80
2023-04-23T01:57:38.609Z,15.10
2023-04-23T01:58:38.586Z,14.50
2023-04-23T01:59:38.568Z,16.00
2023-04-23T02:00:38.510Z,15.70
2023-04-23T02:01:38.549Z,17.50
2023-04-23T02:02:38.616Z,15.60
2023-04-23T02:03:38.564Z,17.20
2023-04-23T02:04:38.748Z,19.80
2023-04-23T02:05:38.469Z,20.60
2023-04-23T02:06:38.463Z,23.30
2023-04-23T02:07:38.424Z,23.10
2023-04-23T02:08:38.406Z,23.10
2023-04-23T02:09:38.423Z,27.20
2023-04-23T02:10:38.393Z,25.30
2023-04-23T02:11:38.381Z,27.70
2023-04-23T02:12:38.379Z,27.10
2023-04-23T02:13:38.361Z,28.00
2023-04-23T02:14:38.450Z,27.30
2023-04-23T02:15:38.342Z,28.20
2023-04-23T02:16:38.333Z,26.90
2023-04-23T02:17:38.340Z,28.80
2023-04-23T02:18:38.310Z,28.30
2023-04-23T02:19:38.355Z,29.00
2023-04-23T02:20:38.317Z,30.90
2023-04-23T02:21:38.278Z,31.90
2023-04-23T02:22:38.279Z,29.90
2023-04-23T02:23:38.253Z,30.00
2023-04-23T02:24:38.349Z,30.60
2023-04-23T02:25:38.238Z,29.50
2023-04-23T02:26:38.212Z,29.50
2023-04-23T02:27:38.200Z,28.20
2023-04-23T02:28:38.205Z,28.20
2023-04-23T02:29:38.228Z,30.00
2023-04-23T02:30:38.171Z,28.90
2023-04-23T02:31:38.203Z,28.30
2023-04-23T02:32:38.160Z,26.30
2023-04-23T02:33:38.147Z,28.10
2023-04-23T02:34:38.272Z,25.40
2023-04-23T02:35:38.113Z,26.50
2023-04-23T02:36:38.108Z,26.40
2023-04-23T02:37:38.110Z,26.80
2023-04-23T02:38:38.096Z,25.20
2023-04-23T02:39:38.131Z,24.50
2023-04-23T02:40:38.061Z,24.30
2023-04-23T02:41:38.058Z,25.40
2023-04-23T02:42:38.042Z,25.20
2023-04-23T02:43:38.043Z,25.40
2023-04-23T02:44:38.112Z,24.90
2023-04-23T02:45:38.019Z,23.80
2023-04-23T02:46:38.040Z,24.30
2023-04-23T02:47:38.057Z,23.90
2023-04-23T02:48:38.043Z,24.20
2023-04-23T02:49:37.978Z,26.00
2023-04-23T02:50:37.949Z,25.80
2023-04-23T02:51:37.930Z,23.90
2023-04-23T02:52:37.928Z,25.60
2023-04-23T02:53:37.913Z,26.00
2023-04-23T02:54:37.939Z,26.00
2023-04-23T02:55:37.928Z,27.50
2023-04-23T02:56:37.883Z,28.90
2023-04-23T02:57:37.906Z,26.40
2023-04-23T02:58:37.861Z,25.00
2023-04-23T02:59:37.867Z,27.10
2023-04-23T03:00:37.871Z,29.10
2023-04-23T03:01:37.865Z,26.20
2023-04-23T03:02:37.905Z,28.40
2023-04-23T03:03:37.911Z,25.80
2023-04-23T03:04:37.818Z,28.50
2023-04-23T03:05:37.817Z,30.00
2023-04-23T03:06:37.762Z,26.20
2023-04-23T03:07:37.775Z,25.10
2023-04-23T03:08:37.736Z,26.90
2023-04-23T03:09:37.736Z,24.70
2023-04-23T03:10:37.735Z,24.20
2023-04-23T03:11:37.710Z,24.60
2023-04-23T03:12:37.706Z,23.50
2023-04-23T03:13:37.702Z,23.30
2023-04-23T03:14:37.673Z,23.00
2023-04-23T03:15:37.696Z,23.30
2023-04-23T03:16:37.680Z,21.10
2023-04-23T03:17:37.676Z,24.60
2023-04-23T03:18:37.648Z,23.00
2023-04-23T03:19:37.624Z,22.90
2023-04-23T03:20:37.625Z,22.70
2023-04-23T03:21:37.614Z,25.20
2023-04-23T03:22:37.588Z,23.80
2023-04-23T03:23:37.579Z,22.90
2023-04-23T03:24:37.583Z,22.40
2023-04-23T03:25:37.575Z,23.40
2023-04-23T03:26:37.540Z,21.30
2023-04-23T03:27:39.687Z,24.40
2023-04-23T03:28:37.527Z,23.20
2023-04-23T03:29:37.506Z,21.60
2023-04-23T03:30:37.553Z,23.80
2023-04-23T03:31:37.505Z,23.00
2023-04-23T03:32:37.488Z,22.50
2023-04-23T03:33:37.464Z,21.60
2023-04-23T03:34:37.459Z,23.50
2023-04-23T03:35:37.473Z,20.40
2023-04-23T03:36:37.432Z,21.80
2023-04-23T03:37:37.418Z,20.30
2023-04-23T03:38:37.407Z,24.20
2023-04-23T03:39:37.398Z,22.50
2023-04-23T03:40:37.411Z,20.80
2023-04-23T03:41:37.393Z,22.10
2023-04-23T03:42:37.377Z,21.30
2023-04-23T03:43:37.350Z,21.20
2023-04-23T03:44:37.333Z,21.90
2023-04-23T03:45:37.372Z,20.20
2023-04-23T03:46:37.368Z,22.20
2023-04-23T03:47:37.369Z,20.20
2023-04-23T03:48:37.312Z,21.40
2023-04-23T03:49:37.282Z,20.30
2023-04-23T03:50:37.294Z,20.60
2023-04-23T03:51:37.296Z,19.50
2023-04-23T03:52:37.274Z,21.20
2023-04-23T03:53:37.245Z,20.90
2023-04-23T03:54:37.225Z,20.50
2023-04-23T03:55:37.263Z,19.40
2023-04-23T03:56:37.213Z,20.80
2023-04-23T03:57:37.205Z,23.80
2023-04-23T03:58:37.201Z,20.20
2023-04-23T03:59:37.184Z,21.10
2023-04-23T04:00:37.197Z,23.10
2023-04-23T04:01:37.195Z,21.90
2023-04-23T04:02:37.283Z,22.50
2023-04-23T04:03:37.296Z,22.70
2023-04-23T04:04:37.267Z,20.00
2023-04-23T04:05:37.162Z,20.20
2023-04-23T04:06:37.109Z,21.50
2023-04-23T04:07:37.123Z,20.80
2023-04-23T04:08:37.082Z,20.20
2023-04-23T04:09:37.082Z,20.30
2023-04-23T04:10:37.073Z,21.40
2023-04-23T04:11:37.049Z,23.40
2023-04-23T04:12:37.033Z,19.80
2023-04-23T04:13:37.029Z,22.70
2023-04-23T04:14:37.024Z,20.20
2023-04-23T04:15:37.023Z,19.90
2023-04-23T04:16:37.030Z,20.80
2023-04-23T04:17:36.987Z,20.40
2023-04-23T04:18:36.964Z,20.50
2023-04-23T04:19:36.965Z,18.10
2023-04-23T04:20:36.978Z,18.90
2023-04-23T04:21:36.955Z,19.60
2023-04-23T04:22:36.939Z,19.10
2023-04-23T04:23:36.913Z,20.60
2023-04-23T04:24:36.902Z,21.10
2023-04-23T04:25:36.895Z,16.00
2023-04-23T04:26:36.882Z,18.10
2023-04-23T04:27:36.892Z,17.40
2023-04-23T04:28:36.867Z,17.10
2023-04-23T04:29:36.861Z,16.60
2023-04-23T04:30:36.824Z,17.80
2023-04-23T04:31:36.831Z,15.90
2023-04-23T04:32:36.861Z,17.10
2023-04-23T04:33:36.796Z,15.00
2023-04-23T04:34:36.785Z,14.50
2023-04-23T04:35:36.773Z,14.20
2023-04-23T04:36:36.788Z,17.30
2023-04-23T04:37:36.762Z,15.80
2023-04-23T04:38:36.781Z,16.50
2023-04-23T04:39:36.766Z,16.50
2023-04-23T04:40:36.752Z,17.60
2023-04-23T04:41:36.706Z,16.40
2023-04-23T04:42:36.734Z,14.40
2023-04-23T04:43:36.690Z,15.20
2023-04-23T04:44:36.696Z,15.10
2023-04-23T04:45:36.711Z,13.40
2023-04-23T04:46:36.666Z,16.20
2023-04-23T04:47:36.662Z,15.60
2023-04-23T04:48:36.656Z,13.50
2023-04-23T04:49:36.648Z,13.50
2023-04-23T04:50:36.609Z,12.30
2023-04-23T04:51:36.635Z,13.50
2023-04-23T04:52:36.591Z,12.30
2023-04-23T04:53:36.580Z,13.30
2023-04-23T04:54:36.573Z,15.40
2023-04-23T04:55:36.564Z,13.00
2023-04-23T04:56:36.543Z,12.40
2023-04-23T04:57:36.635Z,12.80
2023-04-23T04:58:36.517Z,12.50
2023-04-23T04:59:36.505Z,12.10
2023-04-23T05:00:36.525Z,13.80
2023-04-23T05:01:36.506Z,11.50
2023-04-23T05:02:36.567Z,13.90
2023-04-23T05:03:36.649Z,12.30
2023-04-23T05:04:36.456Z,10.60
2023-04-23T05:05:36.452Z,11.30
2023-04-23T05:06:36.434Z,11.30
2023-04-23T05:07:36.431Z,14.10
2023-04-23T05:08:36.419Z,11.80
2023-04-23T05:09:36.390Z,12.00
2023-04-23T05:10:36.410Z,11.30
2023-04-23T05:11:36.385Z,11.00
2023-04-23T05:12:36.357Z,11.00
2023-04-23T05:13:36.360Z,11.40
2023-04-23T05:14:36.363Z,11.10
2023-04-23T05:15:36.366Z,11.50
2023-04-23T05:16:36.416Z,10.70
2023-04-23T05:17:36.315Z,11.00
2023-04-23T05:18:36.309Z,11.20
2023-04-23T05:19:36.296Z,12.40
2023-04-23T05:20:36.295Z,12.10
2023-04-23T05:21:36.301Z,10.60
2023-04-23T05:22:36.268Z,11.10
2023-04-23T05:23:36.261Z,11.40
2023-04-23T05:24:36.232Z,10.20
2023-04-23T05:25:36.276Z,11.20
2023-04-23T05:26:36.209Z,12.40
2023-04-23T05:27:36.220Z,13.20
2023-04-23T05:28:36.205Z,9.10
2023-04-23T05:29:36.183Z,9.80
2023-04-23T05:30:36.214Z,9.70
2023-04-23T05:31:36.178Z,9.80
2023-04-23T05:32:36.186Z,10.30
2023-04-23T05:33:46.427Z,10.80
2023-04-23T05:34:36.151Z,10.70
2023-04-23T05:35:42.162Z,9.50
2023-04-23T05:36:36.091Z,10.90
2023-04-23T05:37:36.077Z,10.80
2023-04-23T05:38:36.066Z,9.60
2023-04-23T05:39:36.074Z,9.00
2023-04-23T05:40:36.069Z,9.30
2023-04-23T05:41:36.052Z,8.70
2023-04-23T05:42:36.032Z,9.80
2023-04-23T05:43:36.045Z,8.70
2023-04-23T05:44:36.018Z,7.80
2023-04-23T05:45:36.325Z,9.00
2023-04-23T05:46:36.027Z,9.00
2023-04-23T05:47:36.023Z,8.40
2023-04-23T05:48:35.963Z,7.90
2023-04-23T05:49:35.958Z,7.80
2023-04-23T05:50:35.947Z,7.90
2023-04-23T05:51:35.945Z,9.20
2023-04-23T05:52:35.937Z,6.00
2023-04-23T05:53:35.911Z,8.10
2023-04-23T05:54:35.913Z,7.40
2023-04-23T05:55:35.923Z,7.40
2023-04-23T05:56:35.934Z,8.20
2023-04-23T05:57:35.883Z,7.10
2023-04-23T05:58:35.852Z,7.70
2023-04-23T05:59:35.838Z,7.80
2023-04-23T06:00:35.845Z,7.40
2023-04-23T06:01:35.822Z,8.50
2023-04-23T06:02:35.960Z,9.20
2023-04-23T06:03:36.014Z,5.70
2023-04-23T06:04:36.146Z,6.80
2023-04-23T06:05:35.797Z,6.40
2023-04-23T06:06:35.753Z,7.40
2023-04-23T06:07:35.746Z,6.70
2023-04-23T06:08:35.754Z,10.30
2023-04-23T06:09:35.740Z,9.50
2023-04-23T06:10:35.729Z,6.90
2023-04-23T06:11:35.719Z,6.50
2023-04-23T06:12:35.693Z,6.90
2023-04-23T06:13:35.676Z,9.40
2023-04-23T06:14:35.681Z,10.80
2023-04-23T06:15:35.686Z,8.70
2023-04-23T06:16:35.682Z,8.10
2023-04-23T06:17:35.676Z,7.90
2023-04-23T06:18:35.626Z,9.00
2023-04-23T06:19:35.621Z,9.00
2023-04-23T06:20:35.636Z,9.30
2023-04-23T06:21:35.594Z,9.80
2023-04-23T06:22:35.578Z,10.20
2023-04-23T06:23:35.563Z,9.30
2023-04-23T06:24:35.569Z,8.70
2023-04-23T06:25:35.547Z,10.70
2023-04-23T06:26:35.549Z,9.00
2023-04-23T06:27:35.523Z,9.20
2023-04-23T06:28:35.510Z,10.70
2023-04-23T06:29:35.548Z,9.20
2023-04-23T06:30:35.509Z,9.90
2023-04-23T06:31:35.571Z,11.20
2023-04-23T06:32:35.514Z,9.20
2023-04-23T06:33:35.477Z,9.90
2023-04-23T06:34:35.443Z,10.80
2023-04-23T06:35:35.463Z,11.40
2023-04-23T06:36:35.428Z,11.10
2023-04-23T06:37:35.420Z,9.10
2023-04-23T06:38:35.405Z,10.30
2023-04-23T06:39:35.392Z,8.90
2023-04-23T06:40:35.384Z,9.20
2023-04-23T06:41:35.383Z,10.30
2023-04-23T06:42:35.406Z,11.20
2023-04-23T06:43:35.340Z,9.90
2023-04-23T06:44:35.324Z,9.80
2023-04-23T06:45:35.366Z,8.80
2023-04-23T06:46:35.333Z,9.20
2023-04-23T06:47:35.348Z,8.70
2023-04-23T06:48:35.284Z,8.90
2023-04-23T06:49:34.273Z,8.80
2023-04-23T06:50:35.280Z,10.30
2023-04-23T06:51:35.275Z,8.40
2023-04-23T06:52:35.260Z,7.70
2023-04-23T06:53:35.245Z,9.60
2023-04-23T06:54:35.211Z,8.10
2023-04-23T06:55:35.225Z,9.20
2023-04-23T06:56:35.199Z,8.70
2023-04-23T06:57:35.190Z,9.70
2023-04-23T06:58:35.197Z,8.60
2023-04-23T06:59:35.163Z,7.80
2023-04-23T07:00:35.173Z,9.20
2023-04-23T07:01:35.159Z,8.70
2023-04-23T07:02:35.229Z,6.90
2023-04-23T07:03:35.145Z,9.10
2023-04-23T07:04:35.186Z,7.90
2023-04-23T07:05:35.114Z,8.10
2023-04-23T07:06:35.098Z,7.50
2023-04-23T07:07:35.113Z,8.40
2023-04-23T07:08:35.097Z,9.70
2023-04-23T07:09:35.077Z,7.90
2023-04-23T07:10:35.097Z,9.70
2023-04-23T07:11:35.081Z,8.10
2023-04-23T07:12:35.028Z,9.40
2023-04-23T07:13:35.044Z,8.20
2023-04-23T07:14:35.011Z,7.90
2023-04-23T07:15:35.081Z,7.40
2023-04-23T07:16:35.003Z,9.20
2023-04-23T07:17:35.022Z,8.80
2023-04-23T07:18:35.003Z,7.80
2023-04-23T07:19:34.977Z,6.60
2023-04-23T07:20:34.970Z,6.60
2023-04-23T07:21:34.952Z,8.20
2023-04-23T07:22:34.952Z,7.10
2023-04-23T07:23:35.073Z,8.20
2023-04-23T07:24:34.912Z,7.40
2023-04-23T07:25:34.900Z,8.80
2023-04-23T07:26:34.941Z,6.70
2023-04-23T07:27:34.896Z,8.10
2023-04-23T07:28:34.890Z,7.80
2023-04-23T07:29:34.854Z,6.10
2023-04-23T07:30:34.844Z,8.70
2023-04-23T07:31:34.883Z,7.00
2023-04-23T07:32:34.881Z,7.00
2023-04-23T07:33:34.809Z,7.70
2023-04-23T07:34:36.233Z,6.40
2023-04-23T07:35:34.807Z,7.20
2023-04-23T07:36:34.842Z,7.30
2023-04-23T07:37:34.784Z,7.30
2023-04-23T07:38:34.749Z,7.80
2023-04-23T07:39:34.767Z,7.80
2023-04-23T07:40:34.748Z,8.00
2023-04-23T07:41:34.756Z,8.60
2023-04-23T07:42:34.708Z,8.10
2023-04-23T07:43:34.705Z,7.80
2023-04-23T07:44:34.703Z,9.90
2023-04-23T07:45:34.678Z,9.40
2023-04-23T07:46:34.737Z,7.40
2023-04-23T07:47:34.714Z,7.00
2023-04-23T07:48:34.655Z,7.60
2023-04-23T07:49:34.760Z,7.40
2023-04-23T07:50:34.636Z,7.50
2023-04-23T07:51:34.629Z,9.10
2023-04-23T07:52:34.610Z,9.10
2023-04-23T07:53:34.622Z,8.40
2023-04-23T07:54:34.579Z,7.80
2023-04-23T07:55:34.577Z,8.10
2023-04-23T07:56:34.589Z,7.80
2023-04-23T07:57:34.554Z,7.50
2023-04-23T07:58:34.527Z,8.70
2023-04-23T07:59:34.535Z,9.30
2023-04-23T08:00:34.531Z,7.70
2023-04-23T08:01:34.523Z,7.80
2023-04-23T08:02:34.641Z,7.70
2023-04-23T08:03:34.668Z,8.80
2023-04-23T08:04:34.617Z,11.60
2023-04-23T08:05:34.467Z,8.50
2023-04-23T08:06:34.454Z,9.40
2023-04-23T08:07:34.443Z,10.00
2023-04-23T08:08:35.236Z,10.10
2023-04-23T08:09:34.446Z,9.00
2023-04-23T08:10:34.406Z,8.60
2023-04-23T08:11:34.429Z,9.70
2023-04-23T08:12:34.367Z,9.60
2023-04-23T08:13:34.364Z,9.30
2023-04-23T08:14:34.343Z,9.70
2023-04-23T08:15:34.356Z,9.10
2023-04-23T08:16:36.432Z,7.10
2023-04-23T08:17:34.326Z,9.10
2023-04-23T08:18:34.315Z,10.50
2023-04-23T08:19:34.304Z,8.20
2023-04-23T08:20:34.301Z,8.70
2023-04-23T08:21:34.292Z,9.30
2023-04-23T08:22:34.274Z,9.10
2023-04-23T08:23:34.277Z,7.50
2023-04-23T08:24:34.234Z,9.10
2023-04-23T08:25:34.216Z,9.80
2023-04-23T08:26:34.254Z,8.40
2023-04-23T08:27:34.210Z,9.50
2023-04-23T08:28:34.212Z,7.80
2023-04-23T08:29:34.175Z,8.40
2023-04-23T08:30:34.174Z,7.30
2023-04-23T08:31:34.200Z,9.10
2023-04-23T08:32:34.252Z,8.60
2023-04-23T08:33:34.144Z,8.40
2023-04-23T08:34:35.773Z,9.70
2023-04-23T08:35:34.131Z,8.50
2023-04-23T08:36:34.140Z,9.10
2023-04-23T08:37:34.114Z,9.50
2023-04-23T08:38:34.080Z,10.90
2023-04-23T08:39:34.063Z,10.40
2023-04-23T08:40:34.054Z,11.20
2023-04-23T08:41:34.070Z,10.70
2023-04-23T08:42:34.036Z,10.70
2023-04-23T08:43:34.045Z,11.30
2023-04-23T08:44:34.008Z,11.90
2023-04-23T08:45:34.005Z,11.50
2023-04-23T08:46:34.017Z,11.60
2023-04-23T08:47:34.004Z,14.00
2023-04-23T08:48:33.984Z,10.20
2023-04-23T08:49:33.950Z,12.40
2023-04-23T08:50:33.959Z,12.00
2023-04-23T08:51:33.954Z,13.40
2023-04-23T08:52:33.962Z,14.40
2023-04-23T08:53:33.936Z,12.90
2023-04-23T08:54:33.922Z,12.80
2023-04-23T08:55:33.915Z,12.30
2023-04-23T08:56:33.908Z,13.00
2023-04-23T08:57:33.869Z,12.70
2023-04-23T08:58:33.859Z,15.90
2023-04-23T08:59:33.843Z,14.20
2023-04-23T09:00:33.852Z,14.00
2023-04-23T09:01:33.845Z,12.70
2023-04-23T09:02:33.877Z,12.20
2023-04-23T09:03:33.853Z,13.00
2023-04-23T09:04:33.822Z,13.80
2023-04-23T09:05:33.780Z,14.10
2023-04-23T09:06:33.793Z,15.30
2023-04-23T09:07:33.757Z,12.90
2023-04-23T09:08:33.772Z,15.50
2023-04-23T09:09:33.745Z,14.70
2023-04-23T09:10:33.734Z,14.20
2023-04-23T09:11:33.727Z,14.00
2023-04-23T09:12:33.715Z,13.00
2023-04-23T09:13:33.720Z,14.10
2023-04-23T09:14:33.685Z,12.90
2023-04-23T09:15:33.670Z,15.10
2023-04-23T09:16:33.722Z,14.20
2023-04-23T09:17:33.719Z,13.80
2023-04-23T09:18:33.663Z,13.80
2023-04-23T09:19:33.640Z,16.80
2023-04-23T09:20:33.633Z,15.20
2023-04-23T09:21:33.613Z,14.00
2023-04-23T09:22:33.600Z,13.20
2023-04-23T09:23:33.583Z,15.20
2023-04-23T09:24:33.571Z,14.70
2023-04-23T09:25:33.566Z,16.60
2023-04-23T09:26:33.564Z,15.20
2023-04-23T09:27:33.544Z,16.10
2023-04-23T09:28:33.523Z,16.00
2023-04-23T09:29:33.508Z,14.40
2023-04-23T09:30:33.543Z,15.50
2023-04-23T09:31:33.524Z,17.10
2023-04-23T09:32:33.561Z,18.20
2023-04-23T09:33:33.476Z,16.20
2023-04-23T09:34:33.464Z,15.70
2023-04-23T09:35:33.448Z,22.20
2023-04-23T09:36:33.474Z,18.90
2023-04-23T09:37:33.444Z,19.00
2023-04-23T09:38:33.418Z,17.70
2023-04-23T09:39:33.427Z,18.50
2023-04-23T09:40:33.395Z,18.90
2023-04-23T09:41:33.398Z,16.50
2023-04-23T09:42:33.370Z,18.40
2023-04-23T09:43:33.364Z,19.10
2023-04-23T09:44:33.348Z,18.60
2023-04-23T09:45:33.344Z,19.30
2023-04-23T09:46:33.351Z,20.90
2023-04-23T09:47:33.335Z,20.10
2023-04-23T09:48:33.306Z,19.30
2023-04-23T09:49:33.313Z,18.10
2023-04-23T09:50:33.296Z,19.90
2023-04-23T09:51:33.283Z,19.60
2023-04-23T09:52:33.275Z,18.00
2023-04-23T09:53:33.250Z,18.00
2023-04-23T09:54:33.250Z,19.50
2023-04-23T09:55:33.245Z,18.70
2023-04-23T09:56:33.239Z,17.00
2023-04-23T09:57:33.207Z,19.30
2023-04-23T09:58:33.189Z,26.50
2023-04-23T09:59:46.787Z,18.30
2023-04-23T10:00:33.172Z,16.50
2023-04-23T10:01:33.228Z,17.70
2023-04-23T10:02:33.221Z,17.30
2023-04-23T10:03:33.254Z,16.20
2023-04-23T10:04:33.362Z,14.70
2023-04-23T10:05:49.803Z,18.30
2023-04-23T10:06:44.330Z,16.40
2023-04-23T10:07:33.107Z,17.80
2023-04-23T10:08:33.079Z,16.50
2023-04-23T10:09:33.061Z,17.70
2023-04-23T10:11:33.060Z,17.30
2023-04-23T10:12:52.085Z,17.80
2023-04-23T10:13:33.027Z,14.90
2023-04-23T10:14:33.010Z,15.90
2023-04-23T10:15:33.017Z,14.50
2023-04-23T10:16:46.061Z,15.70
2023-04-23T10:17:33.002Z,16.60
2023-04-23T10:18:32.964Z,14.00
2023-04-23T10:19:32.951Z,13.40
2023-04-23T10:20:32.945Z,12.80
2023-04-23T10:21:46.243Z,12.50
2023-04-23T10:22:32.933Z,11.80
2023-04-23T10:23:32.911Z,12.00
2023-04-23T10:24:32.896Z,12.20
2023-04-23T10:25:32.896Z,12.60
2023-04-23T10:26:32.901Z,11.90
2023-04-23T10:27:40.299Z,13.60
2023-04-23T10:28:32.870Z,11.40
2023-04-23T10:29:32.839Z,12.10
2023-04-23T10:30:32.818Z,12.90
2023-04-23T10:31:32.933Z,11.60
2023-04-23T10:32:32.834Z,15.60
2023-04-23T10:33:37.629Z,11.40
2023-04-23T10:34:32.817Z,12.40
2023-04-23T10:35:32.814Z,13.00
2023-04-23T10:36:32.778Z,14.40
2023-04-23T10:37:32.754Z,15.90
2023-04-23T10:38:32.747Z,13.20
2023-04-23T10:39:32.733Z,12.50
2023-04-23T10:40:32.724Z,11.70
2023-04-23T10:41:32.726Z,12.10
2023-04-23T10:42:32.709Z,11.60
2023-04-23T10:43:32.692Z,11.80
2023-04-23T10:44:50.186Z,11.70
2023-04-23T10:45:32.667Z,12.00
2023-04-23T10:46:32.713Z,12.10
2023-04-23T10:47:32.691Z,11.10
2023-04-23T10:48:32.630Z,10.50
2023-04-23T10:49:32.619Z,12.70
2023-04-23T10:50:32.604Z,11.40
2023-04-23T10:52:14.891Z,10.30
2023-04-23T10:52:32.592Z,11.30
2023-04-23T10:53:32.572Z,12.00
2023-04-23T10:54:32.615Z,12.40
2023-04-23T10:55:32.560Z,11.50
2023-04-23T10:56:32.558Z,11.20
2023-04-23T10:57:32.530Z,10.90
2023-04-23T10:58:32.552Z,10.00
2023-04-23T10:59:32.525Z,9.70
2023-04-23T11:00:32.527Z,9.80
2023-04-23T11:01:32.545Z,9.70
2023-04-23T11:02:32.552Z,9.10
2023-04-23T11:03:32.776Z,8.70
2023-04-23T11:04:32.687Z,9.00
2023-04-23T11:05:32.437Z,9.50
2023-04-23T11:06:32.440Z,9.50
2023-04-23T11:07:32.423Z,9.60
2023-04-23T11:08:32.425Z,10.20
2023-04-23T11:09:32.407Z,9.40
2023-04-23T11:10:32.387Z,9.40
2023-04-23T11:11:32.436Z,11.60
2023-04-23T11:12:32.378Z,9.40
2023-04-23T11:13:32.377Z,9.00
2023-04-23T11:14:32.364Z,9.80
2023-04-23T11:15:32.333Z,10.20
2023-04-23T11:16:32.415Z,9.20
2023-04-23T11:17:32.337Z,9.00
2023-04-23T11:18:32.289Z,7.70
2023-04-23T11:19:32.292Z,7.60
2023-04-23T11:20:32.276Z,8.60
2023-04-23T11:21:32.280Z,8.10
2023-04-23T11:22:32.276Z,7.00
2023-04-23T11:23:32.269Z,8.80
2023-04-23T11:24:32.252Z,7.30
2023-04-23T11:25:32.219Z,7.10
2023-04-23T11:26:32.226Z,7.70
2023-04-23T11:27:32.223Z,7.90
2023-04-23T11:28:32.190Z,8.00
2023-04-23T11:29:32.174Z,8.70
2023-04-23T11:30:32.168Z,8.30
2023-04-23T11:31:32.324Z,7.00
2023-04-23T11:32:32.293Z,7.30
2023-04-23T11:33:32.138Z,7.80
2023-04-23T11:34:32.134Z,8.10
2023-04-23T11:35:38.682Z,7.90
2023-04-23T11:36:32.109Z,6.10
2023-04-23T11:37:32.078Z,7.30
2023-04-23T11:38:32.075Z,7.00
2023-04-23T11:39:32.074Z,7.30
2023-04-23T11:40:32.057Z,7.20
2023-04-23T11:41:32.059Z,8.30
2023-04-23T11:42:32.036Z,7.20
2023-04-23T11:43:32.026Z,7.60
2023-04-23T11:44:32.103Z,8.60
2023-04-23T11:45:32.002Z,7.60
2023-04-23T11:46:32.026Z,7.20
2023-04-23T11:47:32.026Z,6.90
2023-04-23T11:48:31.985Z,7.30
2023-04-23T11:49:32.000Z,6.40
2023-04-23T11:50:31.976Z,7.10
2023-04-23T11:51:31.936Z,6.80
2023-04-23T11:52:31.918Z,7.30
2023-04-23T11:53:31.944Z,6.60
2023-04-23T11:54:31.899Z,8.50
2023-04-23T11:55:31.887Z,8.10
2023-04-23T11:56:31.891Z,6.40
2023-04-23T11:57:31.858Z,6.80
2023-04-23T11:58:31.858Z,7.00
2023-04-23T11:59:31.865Z,7.00
2023-04-23T12:00:31.835Z,6.80
2023-04-23T12:01:31.885Z,7.40
2023-04-23T12:02:31.879Z,7.50
2023-04-23T12:03:31.973Z,6.10
2023-04-23T12:04:31.900Z,8.60
2023-04-23T12:05:31.825Z,6.30
2023-04-23T12:06:31.766Z,5.40
2023-04-23T12:07:31.769Z,6.00
2023-04-23T12:08:31.745Z,5.60
2023-04-23T12:09:31.736Z,5.80
2023-04-23T12:10:31.740Z,8.60
2023-04-23T12:11:31.734Z,6.10
2023-04-23T12:12:31.717Z,5.60
2023-04-23T12:13:31.688Z,5.90
2023-04-23T12:14:31.677Z,6.20
2023-04-23T12:15:31.674Z,6.10
2023-04-23T12:16:31.864Z,6.20
2023-04-23T12:17:31.695Z,6.10
2023-04-23T12:18:31.649Z,5.80
2023-04-23T12:19:31.630Z,6.20
2023-04-23T12:20:31.602Z,7.00
2023-04-23T12:21:31.621Z,4.90
2023-04-23T12:22:31.610Z,5.60
2023-04-23T12:23:31.592Z,6.20
2023-04-23T12:24:31.584Z,5.20
2023-04-23T12:25:31.550Z,5.30
2023-04-23T12:26:31.587Z,5.50
2023-04-23T12:27:31.531Z,5.10
2023-04-23T12:28:31.525Z,5.10
2023-04-23T12:29:31.534Z,5.20
2023-04-23T12:30:31.497Z,5.60
2023-04-23T12:31:31.517Z,5.20
2023-04-23T12:32:31.541Z,6.50
2023-04-23T12:33:31.493Z,5.40
2023-04-23T12:34:31.492Z,4.70
2023-04-23T12:35:31.473Z,4.90
2023-04-23T12:36:31.451Z,6.00
2023-04-23T12:37:31.440Z,5.20
2023-04-23T12:38:31.457Z,4.80
2023-04-23T12:39:31.444Z,4.90
2023-04-23T12:40:31.383Z,4.30
2023-04-23T12:41:32.998Z,5.10
2023-04-23T12:42:31.370Z,4.60
2023-04-23T12:43:31.355Z,5.10
2023-04-23T12:44:31.376Z,4.90
2023-04-23T12:45:31.325Z,5.50
2023-04-23T12:46:31.365Z,4.50
2023-04-23T12:47:31.340Z,4.80
2023-04-23T12:48:31.311Z,5.10
2023-04-23T12:49:31.315Z,4.40
2023-04-23T12:50:31.303Z,4.70
2023-04-23T12:51:31.279Z,4.70
2023-04-23T12:52:31.288Z,6.50
2023-04-23T12:53:31.264Z,5.60
2023-04-23T12:54:31.317Z,4.90
2023-04-23T12:55:31.225Z,4.70
2023-04-23T12:56:31.218Z,5.40
2023-04-23T12:57:31.219Z,4.10
2023-04-23T12:58:31.194Z,4.70
2023-04-23T12:59:31.213Z,5.90
2023-04-23T13:00:31.184Z,3.90
2023-04-23T13:01:31.191Z,3.60
2023-04-23T13:02:31.341Z,5.00
2023-04-23T13:03:31.187Z,5.50
2023-04-23T13:04:31.156Z,3.90